createdAt,value
2023-10-14T00:03:06.610Z,93
2023-10-14T00:23:07.655Z,93
2023-10-14T00:33:08.487Z,93
2023-10-14T00:53:08.668Z,100
2023-10-14T01:03:09.237Z,100
2023-10-14T01:13:10.397Z,100
2023-10-14T01:23:10.685Z,100
2023-10-14T01:33:11.570Z,100
2023-10-14T01:53:12.653Z,100
2023-10-14T02:03:13.048Z,100
2023-10-14T02:23:14.671Z,100
2023-10-14T02:33:14.818Z,100
2023-10-14T02:53:15.830Z,100
2023-10-14T03:13:16.762Z,100
2023-10-14T03:23:17.815Z,100
2023-10-14T03:33:18.273Z,100
2023-10-14T03:43:18.683Z,100
2023-10-14T03:53:19.510Z,100
2023-10-14T04:03:20.497Z,100
2023-10-14T04:13:21.031Z,100
2023-10-14T04:23:22.105Z,100
2023-10-14T04:33:23.093Z,100
2023-10-14T04:43:23.951Z,100
2023-10-14T04:53:24.397Z,100
2023-10-14T05:13:26.153Z,100
2023-10-14T05:33:27.608Z,100
2023-10-14T06:03:29.509Z,100
2023-10-14T06:13:29.635Z,100
2023-10-14T06:23:30.607Z,100
2023-10-14T06:53:33.077Z,100
2023-10-14T07:03:33.936Z,100
2023-10-14T07:13:34.356Z,100
2023-10-14T07:23:34.647Z,100
2023-10-14T07:33:34.795Z,100
2023-10-14T07:43:35.885Z,100
2023-10-14T07:53:38.780Z,100
2023-10-14T08:03:37.658Z,100
2023-10-14T08:13:38.433Z,100
2023-10-14T08:23:38.957Z,100
2023-10-14T08:33:39.622Z,100
2023-10-14T08:43:40.006Z,100
2023-10-14T08:53:40.380Z,98
2023-10-14T09:03:40.802Z,97
2023-10-14T09:23:42.467Z,92
2023-10-14T09:33:43.248Z,91
2023-10-14T10:03:44.984Z,86
2023-10-14T10:23:45.841Z,83
2023-10-14T10:33:46.090Z,83
2023-10-14T10:43:46.515Z,83
2023-10-14T10:53:47.005Z,83
2023-10-14T11:03:47.431Z,82
2023-10-14T11:23:48.790Z,78
2023-10-14T11:33:49.827Z,77
2023-10-14T11:53:51.091Z,78
2023-10-14T12:03:51.794Z,77
2023-10-14T12:13:51.978Z,74
2023-10-14T12:23:52.045Z,82
2023-10-14T12:33:52.174Z,86
2023-10-14T12:53:53.334Z,81
2023-10-14T13:03:53.783Z,77
2023-10-14T13:13:54.491Z,75
2023-10-14T13:23:55.002Z,78
2023-10-14T13:33:56.081Z,78
2023-10-14T13:53:57.087Z,75
2023-10-14T14:03:58.246Z,74
2023-10-14T14:13:58.916Z,71
2023-10-14T14:23:59.209Z,72
2023-10-14T14:33:59.891Z,74
2023-10-14T14:44:00.624Z,77
2023-10-14T14:54:01.125Z,78
2023-10-14T15:04:01.548Z,80
2023-10-14T15:14:02.370Z,81
2023-10-14T15:24:02.549Z,81
2023-10-14T15:44:04.286Z,81
2023-10-14T15:54:04.845Z,81
2023-10-14T16:04:05.471Z,82
2023-10-14T16:14:05.732Z,83
2023-10-14T16:24:05.940Z,83
2023-10-14T16:34:06.076Z,84
2023-10-14T16:44:06.845Z,84
2023-10-14T16:54:07.754Z,85
2023-10-14T17:04:08.322Z,86
2023-10-14T17:14:08.524Z,88
2023-10-14T17:24:08.871Z,88
2023-10-14T17:44:09.707Z,89
2023-10-14T17:54:10.778Z,89
2023-10-14T18:14:11.801Z,89
2023-10-14T18:34:13.207Z,89
2023-10-14T18:44:13.324Z,89
2023-10-14T18:54:13.943Z,90
2023-10-14T19:14:15.025Z,92
2023-10-14T19:34:16.757Z,93
2023-10-14T19:54:17.493Z,94
2023-10-14T20:14:19.508Z,95
2023-10-14T20:24:19.691Z,95
2023-10-14T20:34:20.351Z,96
2023-10-14T20:44:21.239Z,96
2023-10-14T20:54:22.268Z,97
2023-10-14T21:34:24.599Z,98
2023-10-14T21:44:25.699Z,98
2023-10-14T22:24:28.986Z,99
2023-10-14T22:34:28.425Z,100
2023-10-14T22:44:29.117Z,100
2023-10-14T22:54:30.175Z,100
2023-10-14T23:04:30.573Z,100
2023-10-14T23:14:30.876Z,100
2023-10-14T23:24:31.888Z,100
2023-10-14T23:44:33.628Z,100
2023-10-14T23:54:34.613Z,100
